sensor_id;sensor_type;location;lat;lon;timestamp;pressure;altitude;pressure_sealevel;temperature;humidity
76011;BME280;64701;43.536;1.478;2023-12-28T00:00:23;100166.63;;;9.29;100.00
76011;BME280;64701;43.536;1.478;2023-12-28T00:02:48;100161.50;;;9.28;100.00
76011;BME280;64701;43.536;1.478;2023-12-28T00:05:14;100158.38;;;9.16;100.00
76011;BME280;64701;43.536;1.478;2023-12-28T00:07:39;100158.06;;;9.11;100.00
76011;BME280;64701;43.536;1.478;2023-12-28T00:10:05;100153.94;;;9.09;100.00
76011;BME280;64701;43.536;1.478;2023-12-28T00:12:30;100158.72;;;9.05;100.00
76011;BME280;64701;43.536;1.478;2023-12-28T00:14:55;100148.16;;;9.05;100.00
76011;BME280;64701;43.536;1.478;2023-12-28T00:17:22;100136.94;;;9.03;100.00
76011;BME280;64701;43.536;1.478;2023-12-28T00:19:47;100138.25;;;8.99;100.00
76011;BME280;64701;43.536;1.478;2023-12-28T00:22:12;100131.31;;;8.98;100.00
76011;BME280;64701;43.536;1.478;2023-12-28T00:24:37;100134.59;;;9.00;100.00
76011;BME280;64701;43.536;1.478;2023-12-28T00:27:03;100126.03;;;8.98;100.00
76011;BME280;64701;43.536;1.478;2023-12-28T00:29:28;100128.00;;;8.96;100.00
76011;BME280;64701;43.536;1.478;2023-12-28T00:31:54;100134.97;;;8.97;100.00
76011;BME280;64701;43.536;1.478;2023-12-28T00:34:19;100141.06;;;8.97;100.00
76011;BME280;64701;43.536;1.478;2023-12-28T00:36:44;100148.47;;;9.02;100.00
76011;BME280;64701;43.536;1.478;2023-12-28T00:39:10;100153.25;;;9.07;100.00
76011;BME280;64701;43.536;1.478;2023-12-28T00:41:35;100151.78;;;9.04;100.00
76011;BME280;64701;43.536;1.478;2023-12-28T00:44:00;100154.75;;;9.09;100.00
76011;BME280;64701;43.536;1.478;2023-12-28T00:46:27;100152.78;;;9.11;100.00
76011;BME280;64701;43.536;1.478;2023-12-28T00:48:52;100155.25;;;9.13;100.00
76011;BME280;64701;43.536;1.478;2023-12-28T00:51:17;100149.13;;;9.12;100.00
76011;BME280;64701;43.536;1.478;2023-12-28T00:53:42;100150.78;;;9.13;100.00
76011;BME280;64701;43.536;1.478;2023-12-28T00:56:09;100146.00;;;9.09;100.00
76011;BME280;64701;43.536;1.478;2023-12-28T00:58:34;100138.25;;;9.07;100.00
76011;BME280;64701;43.536;1.478;2023-12-28T01:00:59;100138.91;;;9.09;100.00
76011;BME280;64701;43.536;1.478;2023-12-28T01:03:24;100138.56;;;9.12;100.00
76011;BME280;64701;43.536;1.478;2023-12-28T01:05:50;100132.97;;;9.15;100.00
76011;BME280;64701;43.536;1.478;2023-12-28T01:08:17;100131.31;;;9.14;100.00
76011;BME280;64701;43.536;1.478;2023-12-28T01:10:42;100131.31;;;9.14;100.00
76011;BME280;64701;43.536;1.478;2023-12-28T01:13:08;100140.72;;;9.17;100.00
76011;BME280;64701;43.536;1.478;2023-12-28T01:15:33;100147.47;;;9.19;100.00
76011;BME280;64701;43.536;1.478;2023-12-28T01:17:58;100150.94;;;9.20;100.00
76011;BME280;64701;43.536;1.478;2023-12-28T01:20:23;100157.06;;;9.20;100.00
76011;BME280;64701;43.536;1.478;2023-12-28T01:22:49;100160.69;;;9.19;100.00
76011;BME280;64701;43.536;1.478;2023-12-28T01:25:15;100169.28;;;9.21;100.00
76011;BME280;64701;43.536;1.478;2023-12-28T01:27:40;100178.03;;;9.22;100.00
76011;BME280;64701;43.536;1.478;2023-12-28T01:30:06;100178.03;;;9.22;100.00
76011;BME280;64701;43.536;1.478;2023-12-28T01:32:31;100176.22;;;9.22;100.00
76011;BME280;64701;43.536;1.478;2023-12-28T01:34:56;100171.91;;;9.21;100.00
76011;BME280;64701;43.536;1.478;2023-12-28T01:37:22;100172.91;;;9.20;100.00
76011;BME280;64701;43.536;1.478;2023-12-28T01:39:48;100165.97;;;9.19;100.00
76011;BME280;64701;43.536;1.478;2023-12-28T01:42:13;100166.13;;;9.18;100.00
76011;BME280;64701;43.536;1.478;2023-12-28T01:44:38;100165.66;;;9.14;100.00
76011;BME280;64701;43.536;1.478;2023-12-28T01:47:03;100159.69;;;9.12;100.00
76011;BME280;64701;43.536;1.478;2023-12-28T01:49:29;100162.69;;;9.09;100.00
76011;BME280;64701;43.536;1.478;2023-12-28T01:51:55;100160.34;;;9.06;100.00
76011;BME280;64701;43.536;1.478;2023-12-28T01:54:20;100163.19;;;9.05;100.00
76011;BME280;64701;43.536;1.478;2023-12-28T01:56:46;100171.28;;;9.03;100.00
76011;BME280;64701;43.536;1.478;2023-12-28T01:59:11;100161.03;;;9.00;100.00
76011;BME280;64701;43.536;1.478;2023-12-28T02:01:37;100154.44;;;8.96;100.00
76011;BME280;64701;43.536;1.478;2023-12-28T02:04:02;100153.13;;;8.92;100.00
76011;BME280;64701;43.536;1.478;2023-12-28T02:06:27;100151.13;;;8.86;100.00
76011;BME280;64701;43.536;1.478;2023-12-28T02:08:53;100151.78;;;8.80;100.00
76011;BME280;64701;43.536;1.478;2023-12-28T02:11:18;100152.78;;;8.79;100.00
76011;BME280;64701;43.536;1.478;2023-12-28T02:13:44;100151.13;;;8.78;100.00
76011;BME280;64701;43.536;1.478;2023-12-28T02:16:32;100143.38;;;8.76;100.00
76011;BME280;64701;43.536;1.478;2023-12-28T02:18:56;100151.47;;;8.75;100.00
76011;BME280;64701;43.536;1.478;2023-12-28T02:21:21;100151.63;;;8.73;100.00
76011;BME280;64701;43.536;1.478;2023-12-28T02:23:47;100154.41;;;8.72;100.00
76011;BME280;64701;43.536;1.478;2023-12-28T02:26:13;100154.75;;;8.69;100.00
76011;BME280;64701;43.536;1.478;2023-12-28T02:28:38;100164.66;;;8.67;100.00
76011;BME280;64701;43.536;1.478;2023-12-28T02:31:04;100166.63;;;8.65;100.00
76011;BME280;64701;43.536;1.478;2023-12-28T02:33:34;100172.91;;;8.64;100.00
76011;BME280;64701;43.536;1.478;2023-12-28T02:36:02;100162.66;;;8.60;100.00
76011;BME280;64701;43.536;1.478;2023-12-28T02:38:30;100161.34;;;8.56;100.00
76011;BME280;64701;43.536;1.478;2023-12-28T02:40:57;100160.69;;;8.54;100.00
76011;BME280;64701;43.536;1.478;2023-12-28T02:43:23;100167.75;;;8.54;100.00
76011;BME280;64701;43.536;1.478;2023-12-28T02:45:48;100161.84;;;8.52;100.00
76011;BME280;64701;43.536;1.478;2023-12-28T02:48:13;100156.88;;;8.49;100.00
76011;BME280;64701;43.536;1.478;2023-12-28T02:50:38;100149.44;;;8.44;100.00
76011;BME280;64701;43.536;1.478;2023-12-28T02:53:04;100143.50;;;8.42;100.00
76011;BME280;64701;43.536;1.478;2023-12-28T02:55:29;100143.16;;;8.37;100.00
76011;BME280;64701;43.536;1.478;2023-12-28T02:57:55;100124.22;;;8.34;100.00
76011;BME280;64701;43.536;1.478;2023-12-28T03:00:21;100133.59;;;8.36;100.00
76011;BME280;64701;43.536;1.478;2023-12-28T03:02:47;100127.50;;;8.36;100.00
76011;BME280;64701;43.536;1.478;2023-12-28T03:05:12;100119.72;;;8.34;100.00
76011;BME280;64701;43.536;1.478;2023-12-28T03:07:37;100117.09;;;8.34;100.00
76011;BME280;64701;43.536;1.478;2023-12-28T03:10:03;100116.78;;;8.37;100.00
76011;BME280;64701;43.536;1.478;2023-12-28T03:12:29;100120.41;;;8.36;100.00
76011;BME280;64701;43.536;1.478;2023-12-28T03:14:55;100120.91;;;8.40;100.00
76011;BME280;64701;43.536;1.478;2023-12-28T03:17:20;100118.28;;;8.40;100.00
76011;BME280;64701;43.536;1.478;2023-12-28T03:19:45;100110.38;;;8.40;100.00
76011;BME280;64701;43.536;1.478;2023-12-28T03:22:11;100111.16;;;8.40;100.00
76011;BME280;64701;43.536;1.478;2023-12-28T03:24:36;100125.56;;;8.46;100.00
76011;BME280;64701;43.536;1.478;2023-12-28T03:27:02;100110.88;;;8.51;100.00
76011;BME280;64701;43.536;1.478;2023-12-28T03:29:27;100106.22;;;8.53;100.00
76011;BME280;64701;43.536;1.478;2023-12-28T03:31:52;100105.25;;;8.54;100.00
76011;BME280;64701;43.536;1.478;2023-12-28T03:34:18;100104.56;;;8.52;100.00
76011;BME280;64701;43.536;1.478;2023-12-28T03:36:43;100112.69;;;8.51;100.00
76011;BME280;64701;43.536;1.478;2023-12-28T03:39:08;100115.13;;;8.52;100.00
76011;BME280;64701;43.536;1.478;2023-12-28T03:41:34;100108.88;;;8.53;100.00
76011;BME280;64701;43.536;1.478;2023-12-28T03:43:59;100105.75;;;8.50;100.00
76011;BME280;64701;43.536;1.478;2023-12-28T03:46:24;100102.25;;;8.41;100.00
76011;BME280;64701;43.536;1.478;2023-12-28T03:48:50;100101.28;;;8.42;100.00
76011;BME280;64701;43.536;1.478;2023-12-28T03:51:16;100094.53;;;8.40;100.00
76011;BME280;64701;43.536;1.478;2023-12-28T03:53:41;100097.31;;;8.38;100.00
76011;BME280;64701;43.536;1.478;2023-12-28T03:56:07;100095.81;;;8.36;100.00
76011;BME280;64701;43.536;1.478;2023-12-28T03:58:32;100102.44;;;8.32;100.00
76011;BME280;64701;43.536;1.478;2023-12-28T04:00:57;100097.97;;;8.32;100.00
76011;BME280;64701;43.536;1.478;2023-12-28T04:03:22;100107.00;;;8.30;100.00
76011;BME280;64701;43.536;1.478;2023-12-28T04:05:48;100101.91;;;8.28;100.00
76011;BME280;64701;43.536;1.478;2023-12-28T04:08:13;100109.16;;;8.26;100.00
76011;BME280;64701;43.536;1.478;2023-12-28T04:10:38;100095.13;;;8.26;100.00
76011;BME280;64701;43.536;1.478;2023-12-28T04:13:04;100105.84;;;8.24;100.00
76011;BME280;64701;43.536;1.478;2023-12-28T04:15:29;100111.78;;;8.26;100.00
76011;BME280;64701;43.536;1.478;2023-12-28T04:17:55;100109.63;;;8.30;100.00
76011;BME280;64701;43.536;1.478;2023-12-28T04:20:20;100121.88;;;8.31;100.00
76011;BME280;64701;43.536;1.478;2023-12-28T04:22:46;100115.47;;;8.33;100.00
76011;BME280;64701;43.536;1.478;2023-12-28T04:25:11;100111.00;;;8.34;100.00
76011;BME280;64701;43.536;1.478;2023-12-28T04:27:37;100094.16;;;8.27;100.00
76011;BME280;64701;43.536;1.478;2023-12-28T04:30:02;100093.47;;;8.25;100.00
76011;BME280;64701;43.536;1.478;2023-12-28T04:32:28;100090.84;;;8.25;100.00
76011;BME280;64701;43.536;1.478;2023-12-28T04:34:53;100081.47;;;8.22;100.00
76011;BME280;64701;43.536;1.478;2023-12-28T04:37:21;100078.81;;;8.22;100.00
76011;BME280;64701;43.536;1.478;2023-12-28T04:39:46;100074.00;;;8.17;100.00
76011;BME280;64701;43.536;1.478;2023-12-28T04:42:12;100075.66;;;8.18;100.00
76011;BME280;64701;43.536;1.478;2023-12-28T04:44:37;100069.56;;;8.18;100.00
76011;BME280;64701;43.536;1.478;2023-12-28T04:47:03;100074.00;;;8.17;100.00
76011;BME280;64701;43.536;1.478;2023-12-28T04:49:29;100068.25;;;8.22;100.00
76011;BME280;64701;43.536;1.478;2023-12-28T04:51:54;100069.06;;;8.23;100.00
76011;BME280;64701;43.536;1.478;2023-12-28T04:54:20;100070.41;;;8.27;100.00
76011;BME280;64701;43.536;1.478;2023-12-28T04:56:45;100068.97;;;8.32;100.00
76011;BME280;64701;43.536;1.478;2023-12-28T04:59:10;100064.84;;;8.38;100.00
76011;BME280;64701;43.536;1.478;2023-12-28T05:01:40;100068.63;;;8.43;100.00
76011;BME280;64701;43.536;1.478;2023-12-28T05:04:05;100074.06;;;8.50;100.00
76011;BME280;64701;43.536;1.478;2023-12-28T05:06:30;100074.25;;;8.56;100.00
76011;BME280;64701;43.536;1.478;2023-12-28T05:08:56;100079.53;;;8.56;100.00
76011;BME280;64701;43.536;1.478;2023-12-28T05:11:21;100083.16;;;8.64;100.00
76011;BME280;64701;43.536;1.478;2023-12-28T05:13:46;100096.84;;;8.67;100.00
76011;BME280;64701;43.536;1.478;2023-12-28T05:16:11;100094.03;;;8.69;100.00
76011;BME280;64701;43.536;1.478;2023-12-28T05:18:37;100100.31;;;8.76;100.00
76011;BME280;64701;43.536;1.478;2023-12-28T05:21:02;100091.38;;;8.77;100.00
76011;BME280;64701;43.536;1.478;2023-12-28T05:23:27;100083.31;;;8.78;100.00
76011;BME280;64701;43.536;1.478;2023-12-28T05:25:52;100090.41;;;8.78;100.00
76011;BME280;64701;43.536;1.478;2023-12-28T05:28:18;100097.66;;;8.84;100.00
76011;BME280;64701;43.536;1.478;2023-12-28T05:30:43;100088.41;;;8.88;100.00
76011;BME280;64701;43.536;1.478;2023-12-28T05:33:08;100088.09;;;8.91;100.00
76011;BME280;64701;43.536;1.478;2023-12-28T05:35:34;100092.03;;;8.95;100.00
76011;BME280;64701;43.536;1.478;2023-12-28T05:37:59;100075.53;;;8.93;100.00
76011;BME280;64701;43.536;1.478;2023-12-28T05:40:25;100074.22;;;8.97;100.00
76011;BME280;64701;43.536;1.478;2023-12-28T05:42:50;100074.06;;;8.98;100.00
76011;BME280;64701;43.536;1.478;2023-12-28T05:45:15;100084.44;;;9.00;100.00
76011;BME280;64701;43.536;1.478;2023-12-28T05:47:40;100084.78;;;9.05;100.00
76011;BME280;64701;43.536;1.478;2023-12-28T05:50:06;100079.13;;;9.08;100.00
76011;BME280;64701;43.536;1.478;2023-12-28T05:52:31;100089.38;;;9.11;100.00
76011;BME280;64701;43.536;1.478;2023-12-28T05:54:56;100091.00;;;9.12;100.00
76011;BME280;64701;43.536;1.478;2023-12-28T05:57:22;100089.03;;;9.14;100.00
76011;BME280;64701;43.536;1.478;2023-12-28T05:59:47;100089.50;;;9.18;100.00
76011;BME280;64701;43.536;1.478;2023-12-28T06:02:12;100093.31;;;9.23;100.00
76011;BME280;64701;43.536;1.478;2023-12-28T06:04:37;100097.94;;;9.21;100.00
76011;BME280;64701;43.536;1.478;2023-12-28T06:07:03;100101.56;;;9.28;100.00
76011;BME280;64701;43.536;1.478;2023-12-28T06:09:28;100109.81;;;9.25;100.00
76011;BME280;64701;43.536;1.478;2023-12-28T06:11:54;100105.19;;;9.27;100.00
76011;BME280;64701;43.536;1.478;2023-12-28T06:14:19;100111.94;;;9.30;100.00
76011;BME280;64701;43.536;1.478;2023-12-28T06:16:44;100111.16;;;9.29;100.00
76011;BME280;64701;43.536;1.478;2023-12-28T06:19:09;100107.69;;;9.29;100.00
76011;BME280;64701;43.536;1.478;2023-12-28T06:21:35;100106.84;;;9.28;100.00
76011;BME280;64701;43.536;1.478;2023-12-28T06:24:00;100121.53;;;9.31;100.00
76011;BME280;64701;43.536;1.478;2023-12-28T06:26:25;100114.41;;;9.31;100.00
76011;BME280;64701;43.536;1.478;2023-12-28T06:28:50;100121.88;;;9.28;100.00
76011;BME280;64701;43.536;1.478;2023-12-28T06:31:16;100125.34;;;9.28;100.00
76011;BME280;64701;43.536;1.478;2023-12-28T06:33:41;100114.78;;;9.28;100.00
76011;BME280;64701;43.536;1.478;2023-12-28T06:36:06;100120.38;;;9.33;100.00
76011;BME280;64701;43.536;1.478;2023-12-28T06:38:32;100128.63;;;9.38;100.00
76011;BME280;64701;43.536;1.478;2023-12-28T06:40:58;100119.03;;;9.37;100.00
76011;BME280;64701;43.536;1.478;2023-12-28T06:43:23;100117.69;;;9.41;100.00
76011;BME280;64701;43.536;1.478;2023-12-28T06:45:48;100112.75;;;9.38;100.00
76011;BME280;64701;43.536;1.478;2023-12-28T06:48:14;100108.13;;;9.40;100.00
76011;BME280;64701;43.536;1.478;2023-12-28T06:50:39;100101.84;;;9.41;100.00
76011;BME280;64701;43.536;1.478;2023-12-28T06:53:04;100109.94;;;9.40;100.00
76011;BME280;64701;43.536;1.478;2023-12-28T06:55:29;100109.59;;;9.43;100.00
76011;BME280;64701;43.536;1.478;2023-12-28T06:57:55;100105.81;;;9.46;100.00
76011;BME280;64701;43.536;1.478;2023-12-28T07:00:20;100088.97;;;9.47;100.00
76011;BME280;64701;43.536;1.478;2023-12-28T07:02:45;100088.47;;;9.43;100.00
76011;BME280;64701;43.536;1.478;2023-12-28T07:05:10;100080.38;;;9.45;100.00
76011;BME280;64701;43.536;1.478;2023-12-28T07:07:37;100086.13;;;9.48;100.00
76011;BME280;64701;43.536;1.478;2023-12-28T07:10:03;100094.72;;;9.50;100.00
76011;BME280;64701;43.536;1.478;2023-12-28T07:12:28;100093.88;;;9.50;100.00
76011;BME280;64701;43.536;1.478;2023-12-28T07:14:54;100096.84;;;9.55;100.00
76011;BME280;64701;43.536;1.478;2023-12-28T07:17:19;100098.31;;;9.57;100.00
76011;BME280;64701;43.536;1.478;2023-12-28T07:19:44;100097.66;;;9.55;100.00
76011;BME280;64701;43.536;1.478;2023-12-28T07:22:10;100103.09;;;9.62;100.00
76011;BME280;64701;43.536;1.478;2023-12-28T07:24:35;100097.34;;;9.58;100.00
76011;BME280;64701;43.536;1.478;2023-12-28T07:27:00;100101.28;;;9.62;100.00
76011;BME280;64701;43.536;1.478;2023-12-28T07:29:26;100098.81;;;9.61;100.00
76011;BME280;64701;43.536;1.478;2023-12-28T07:31:51;100102.94;;;9.63;100.00
76011;BME280;64701;43.536;1.478;2023-12-28T07:34:16;100099.47;;;9.63;100.00
76011;BME280;64701;43.536;1.478;2023-12-28T07:36:42;100105.22;;;9.66;100.00
76011;BME280;64701;43.536;1.478;2023-12-28T07:39:08;100105.56;;;9.63;100.00
76011;BME280;64701;43.536;1.478;2023-12-28T07:41:34;100104.75;;;9.63;100.00
76011;BME280;64701;43.536;1.478;2023-12-28T07:43:59;100114.28;;;9.72;100.00
76011;BME280;64701;43.536;1.478;2023-12-28T07:46:24;100111.63;;;9.72;100.00
76011;BME280;64701;43.536;1.478;2023-12-28T07:48:49;100113.00;;;9.68;100.00
76011;BME280;64701;43.536;1.478;2023-12-28T07:51:15;100114.47;;;9.70;100.00
76011;BME280;64701;43.536;1.478;2023-12-28T07:53:40;100111.97;;;9.77;100.00
76011;BME280;64701;43.536;1.478;2023-12-28T07:56:05;100116.25;;;9.78;100.00
76011;BME280;64701;43.536;1.478;2023-12-28T07:58:31;100120.53;;;9.79;100.00
76011;BME280;64701;43.536;1.478;2023-12-28T08:00:56;100116.44;;;9.76;100.00
76011;BME280;64701;43.536;1.478;2023-12-28T08:03:21;100117.91;;;9.79;100.00
76011;BME280;64701;43.536;1.478;2023-12-28T08:05:46;100118.88;;;9.78;100.00
76011;BME280;64701;43.536;1.478;2023-12-28T08:08:12;100124.97;;;9.87;100.00
76011;BME280;64701;43.536;1.478;2023-12-28T08:10:37;100120.69;;;9.86;100.00
76011;BME280;64701;43.536;1.478;2023-12-28T08:13:02;100125.84;;;9.79;100.00
76011;BME280;64701;43.536;1.478;2023-12-28T08:15:28;100124.84;;;9.80;100.00
76011;BME280;64701;43.536;1.478;2023-12-28T08:17:53;100123.03;;;9.80;100.00
76011;BME280;64701;43.536;1.478;2023-12-28T08:20:18;100128.44;;;9.87;100.00
76011;BME280;64701;43.536;1.478;2023-12-28T08:22:44;100123.78;;;9.89;100.00
76011;BME280;64701;43.536;1.478;2023-12-28T08:25:09;100131.41;;;9.92;100.00
76011;BME280;64701;43.536;1.478;2023-12-28T08:27:35;100131.03;;;9.95;100.00
76011;BME280;64701;43.536;1.478;2023-12-28T08:30:01;100130.25;;;9.95;100.00
76011;BME280;64701;43.536;1.478;2023-12-28T08:32:27;100127.41;;;9.96;100.00
76011;BME280;64701;43.536;1.478;2023-12-28T08:34:52;100124.75;;;9.96;100.00
76011;BME280;64701;43.536;1.478;2023-12-28T08:37:17;100126.25;;;9.99;100.00
76011;BME280;64701;43.536;1.478;2023-12-28T08:39:42;100129.06;;;9.97;100.00
76011;BME280;64701;43.536;1.478;2023-12-28T08:42:08;100141.63;;;9.95;100.00
76011;BME280;64701;43.536;1.478;2023-12-28T08:44:33;100137.53;;;9.93;100.00
76011;BME280;64701;43.536;1.478;2023-12-28T08:46:59;100132.69;;;9.96;100.00
76011;BME280;64701;43.536;1.478;2023-12-28T08:49:24;100136.97;;;10.05;100.00
76011;BME280;64701;43.536;1.478;2023-12-28T08:51:50;100149.50;;;10.11;100.00
76011;BME280;64701;43.536;1.478;2023-12-28T08:54:15;100142.41;;;10.12;100.00
76011;BME280;64701;43.536;1.478;2023-12-28T08:56:40;100158.06;;;10.13;100.00
76011;BME280;64701;43.536;1.478;2023-12-28T08:59:06;100154.13;;;10.09;100.00
76011;BME280;64701;43.536;1.478;2023-12-28T09:01:31;100154.13;;;10.09;100.00
76011;BME280;64701;43.536;1.478;2023-12-28T09:03:57;100168.34;;;10.08;100.00
76011;BME280;64701;43.536;1.478;2023-12-28T09:06:23;100158.28;;;10.12;100.00
76011;BME280;64701;43.536;1.478;2023-12-28T09:08:51;100163.88;;;10.09;100.00
76011;BME280;64701;43.536;1.478;2023-12-28T09:11:17;100165.53;;;10.10;100.00
76011;BME280;64701;43.536;1.478;2023-12-28T09:13:43;100155.13;;;10.16;100.00
76011;BME280;64701;43.536;1.478;2023-12-28T09:16:09;100161.09;;;10.18;100.00
76011;BME280;64701;43.536;1.478;2023-12-28T09:18:35;100165.16;;;10.29;100.00
76011;BME280;64701;43.536;1.478;2023-12-28T09:21:02;100172.97;;;10.22;100.00
76011;BME280;64701;43.536;1.478;2023-12-28T09:23:28;100155.09;;;10.25;100.00
76011;BME280;64701;43.536;1.478;2023-12-28T09:25:53;100165.97;;;10.30;100.00
76011;BME280;64701;43.536;1.478;2023-12-28T09:28:21;100170.59;;;10.36;100.00
76011;BME280;64701;43.536;1.478;2023-12-28T09:30:46;100177.81;;;10.42;100.00
76011;BME280;64701;43.536;1.478;2023-12-28T09:33:11;100191.06;;;10.42;100.00
76011;BME280;64701;43.536;1.478;2023-12-28T09:35:36;100183.97;;;10.34;100.00
76011;BME280;64701;43.536;1.478;2023-12-28T09:38:02;100190.38;;;10.48;100.00
76011;BME280;64701;43.536;1.478;2023-12-28T09:40:27;100184.56;;;10.44;100.00
76011;BME280;64701;43.536;1.478;2023-12-28T09:45:24;100181.53;;;10.55;100.00
76011;BME280;64701;43.536;1.478;2023-12-28T09:47:50;100184.38;;;10.54;100.00
76011;BME280;64701;43.536;1.478;2023-12-28T09:50:16;100177.44;;;10.53;100.00
76011;BME280;64701;43.536;1.478;2023-12-28T09:52:42;100180.25;;;10.51;100.00
76011;BME280;64701;43.536;1.478;2023-12-28T09:55:08;100180.38;;;10.58;100.00
76011;BME280;64701;43.536;1.478;2023-12-28T09:57:34;100172.25;;;10.59;100.00
76011;BME280;64701;43.536;1.478;2023-12-28T09:59:59;100169.53;;;10.68;100.00
76011;BME280;64701;43.536;1.478;2023-12-28T10:02:25;100180.13;;;10.68;100.00
76011;BME280;64701;43.536;1.478;2023-12-28T10:04:50;100170.84;;;10.72;100.00
76011;BME280;64701;43.536;1.478;2023-12-28T10:07:15;100178.00;;;10.63;100.00
76011;BME280;64701;43.536;1.478;2023-12-28T10:09:41;100183.59;;;10.68;100.00
76011;BME280;64701;43.536;1.478;2023-12-28T10:12:06;100176.97;;;10.72;100.00
76011;BME280;64701;43.536;1.478;2023-12-28T10:14:31;100187.84;;;10.77;100.00
76011;BME280;64701;43.536;1.478;2023-12-28T10:16:57;100186.31;;;10.83;100.00
76011;BME280;64701;43.536;1.478;2023-12-28T10:19:22;100192.16;;;10.78;100.00
76011;BME280;64701;43.536;1.478;2023-12-28T10:21:48;100185.00;;;10.79;100.00
76011;BME280;64701;43.536;1.478;2023-12-28T10:24:14;100166.25;;;10.88;100.00
76011;BME280;64701;43.536;1.478;2023-12-28T10:26:39;100172.72;;;10.86;100.00
76011;BME280;64701;43.536;1.478;2023-12-28T10:29:05;100168.50;;;10.77;100.00
76011;BME280;64701;43.536;1.478;2023-12-28T10:31:30;100186.19;;;10.76;100.00
76011;BME280;64701;43.536;1.478;2023-12-28T10:33:58;100172.31;;;10.74;100.00
76011;BME280;64701;43.536;1.478;2023-12-28T10:36:27;100172.53;;;10.87;100.00
76011;BME280;64701;43.536;1.478;2023-12-28T10:38:53;100166.84;;;10.76;100.00
76011;BME280;64701;43.536;1.478;2023-12-28T10:41:18;100181.84;;;10.83;100.00
76011;BME280;64701;43.536;1.478;2023-12-28T10:43:46;100176.06;;;10.80;100.00
76011;BME280;64701;43.536;1.478;2023-12-28T10:46:33;100167.06;;;10.89;100.00
76011;BME280;64701;43.536;1.478;2023-12-28T10:48:58;100161.88;;;10.95;100.00
76011;BME280;64701;43.536;1.478;2023-12-28T10:51:24;100158.53;;;11.01;100.00
76011;BME280;64701;43.536;1.478;2023-12-28T10:54:54;100150.56;;;11.01;100.00
76011;BME280;64701;43.536;1.478;2023-12-28T10:56:47;100161.06;;;10.95;100.00
76011;BME280;64701;43.536;1.478;2023-12-28T11:01:41;100173.13;;;10.97;100.00
76011;BME280;64701;43.536;1.478;2023-12-28T11:04:10;100145.63;;;10.98;100.00
76011;BME280;64701;43.536;1.478;2023-12-28T11:06:39;100131.25;;;10.93;100.00
76011;BME280;64701;43.536;1.478;2023-12-28T11:09:04;100124.78;;;10.95;100.00
76011;BME280;64701;43.536;1.478;2023-12-28T11:11:32;100121.34;;;11.10;100.00
76011;BME280;64701;43.536;1.478;2023-12-28T11:13:59;100138.34;;;11.15;100.00
76011;BME280;64701;43.536;1.478;2023-12-28T11:16:25;100143.75;;;11.22;100.00
76011;BME280;64701;43.536;1.478;2023-12-28T11:18:50;100150.69;;;11.23;100.00
76011;BME280;64701;43.536;1.478;2023-12-28T11:21:16;100146.56;;;11.20;100.00
76011;BME280;64701;43.536;1.478;2023-12-28T11:23:42;100149.69;;;11.24;100.00
76011;BME280;64701;43.536;1.478;2023-12-28T11:26:17;100154.06;;;11.17;100.00
76011;BME280;64701;43.536;1.478;2023-12-28T11:28:42;100150.16;;;11.27;100.00
76011;BME280;64701;43.536;1.478;2023-12-28T11:31:09;100153.47;;;11.29;100.00
76011;BME280;64701;43.536;1.478;2023-12-28T11:33:42;100151.56;;;11.38;100.00
76011;BME280;64701;43.536;1.478;2023-12-28T11:36:08;100147.31;;;11.29;100.00
76011;BME280;64701;43.536;1.478;2023-12-28T11:38:34;100144.94;;;11.34;100.00
76011;BME280;64701;43.536;1.478;2023-12-28T11:41:03;100138.38;;;11.30;100.00
76011;BME280;64701;43.536;1.478;2023-12-28T11:43:28;100140.13;;;11.37;100.00
76011;BME280;64701;43.536;1.478;2023-12-28T11:45:58;100147.78;;;11.32;100.00
76011;BME280;64701;43.536;1.478;2023-12-28T11:48:27;100146.16;;;11.31;100.00
76011;BME280;64701;43.536;1.478;2023-12-28T11:50:54;100141.69;;;11.32;100.00
76011;BME280;64701;43.536;1.478;2023-12-28T11:53:19;100141.69;;;11.32;100.00
76011;BME280;64701;43.536;1.478;2023-12-28T11:55:45;100156.28;;;11.28;100.00
76011;BME280;64701;43.536;1.478;2023-12-28T11:58:10;100164.31;;;11.20;100.00
76011;BME280;64701;43.536;1.478;2023-12-28T12:00:35;100147.31;;;11.29;100.00
76011;BME280;64701;43.536;1.478;2023-12-28T12:03:02;100159.22;;;11.33;100.00
76011;BME280;64701;43.536;1.478;2023-12-28T12:05:27;100156.38;;;11.34;100.00
76011;BME280;64701;43.536;1.478;2023-12-28T12:07:53;100146.56;;;11.20;100.00
76011;BME280;64701;43.536;1.478;2023-12-28T12:10:18;100142.75;;;11.23;100.00
76011;BME280;64701;43.536;1.478;2023-12-28T12:12:43;100141.91;;;11.22;100.00
76011;BME280;64701;43.536;1.478;2023-12-28T12:15:09;100142.03;;;11.29;100.00
76011;BME280;64701;43.536;1.478;2023-12-28T12:17:34;100136.72;;;11.29;100.00
76011;BME280;64701;43.536;1.478;2023-12-28T12:20:00;100130.16;;;11.25;100.00
76011;BME280;64701;43.536;1.478;2023-12-28T12:22:27;100141.09;;;11.22;100.00
76011;BME280;64701;43.536;1.478;2023-12-28T12:24:52;100134.34;;;11.34;100.00
76011;BME280;64701;43.536;1.478;2023-12-28T12:27:18;100137.00;;;11.34;100.00
76011;BME280;64701;43.536;1.478;2023-12-28T12:29:43;100136.44;;;11.38;100.00
76011;BME280;64701;43.536;1.478;2023-12-28T12:32:08;100145.59;;;11.36;100.00
76011;BME280;64701;43.536;1.478;2023-12-28T12:34:34;100136.44;;;11.38;100.00
76011;BME280;64701;43.536;1.478;2023-12-28T12:37:00;100126.66;;;11.39;100.00
76011;BME280;64701;43.536;1.478;2023-12-28T12:39:25;100119.75;;;11.38;100.00
76011;BME280;64701;43.536;1.478;2023-12-28T12:41:51;100118.53;;;11.40;100.00
76011;BME280;64701;43.536;1.478;2023-12-28T12:44:18;100111.59;;;11.25;100.00